Time;durP1;ratioP1;P1;durP2;ratioP2;P2;SDS_P1;SDS_P2;PMS_P1;PMS_P2;Temp;Humidity;BMP_temperature;BMP_pressure;BME280_temperature;BME280_humidity;BME280_pressure;Samples;Min_cycle;Max_cycle;Signal;HPM_P1;HPM_P2
2023/08/08 00:01:03;;;;;;;1.52;1.20;;;23.80;48.40;;;;;;5080388;28;20032;-66
2023/08/08 00:03:29;;;;;;;1.98;1.20;;;23.80;48.40;;;;;;5079001;28;20082;-66
2023/08/08 00:05:54;;;;;;;2.28;1.40;;;23.90;48.50;;;;;;5080087;28;20436;-66
2023/08/08 00:08:20;;;;;;;1.95;1.13;;;23.80;48.40;;;;;;5078240;28;20116;-66
2023/08/08 00:10:45;;;;;;;1.67;1.30;;;23.80;48.50;;;;;;5081061;28;20469;-67
2023/08/08 00:13:11;;;;;;;1.65;1.23;;;23.80;48.40;;;;;;5077472;28;20028;-66
2023/08/08 00:15:37;;;;;;;1.80;1.10;;;23.80;48.40;;;;;;5078687;28;20024;-66
2023/08/08 00:18:03;;;;;;;2.75;1.30;;;23.80;48.50;;;;;;5077796;28;20027;-66
2023/08/08 00:20:28;;;;;;;2.03;1.30;;;23.80;48.50;;;;;;5081072;28;20106;-66
2023/08/08 00:22:54;;;;;;;1.83;1.20;;;23.80;48.50;;;;;;5079823;28;20147;-67
2023/08/08 00:25:20;;;;;;;2.30;1.50;;;23.80;48.50;;;;;;5077453;28;20036;-66
2023/08/08 00:27:45;;;;;;;1.95;1.30;;;23.80;48.50;;;;;;5079332;28;20024;-66
2023/08/08 00:30:14;;;;;;;2.60;1.40;;;23.80;48.50;;;;;;5066354;28;20159;-66
2023/08/08 00:32:40;;;;;;;1.60;1.20;;;23.80;48.50;;;;;;5078015;28;20491;-66
2023/08/08 00:35:06;;;;;;;1.75;1.15;;;23.70;48.50;;;;;;5079268;28;20029;-66
2023/08/08 00:37:32;;;;;;;2.58;1.48;;;23.70;48.50;;;;;;5077681;28;20036;-67
2023/08/08 00:39:58;;;;;;;1.70;1.20;;;23.70;48.50;;;;;;5076558;28;20021;-68
2023/08/08 00:42:23;;;;;;;1.50;1.20;;;23.70;48.50;;;;;;5077971;28;20571;-68
2023/08/08 00:44:49;;;;;;;1.75;1.20;;;23.70;48.50;;;;;;5079481;28;21521;-67
2023/08/08 00:47:14;;;;;;;1.55;1.20;;;23.70;48.50;;;;;;5076753;28;20057;-68
2023/08/08 00:49:41;;;;;;;1.98;1.40;;;23.70;48.60;;;;;;5079158;28;20036;-68
2023/08/08 00:52:07;;;;;;;1.92;1.30;;;23.70;48.50;;;;;;5078441;28;20392;-68
2023/08/08 00:54:33;;;;;;;1.52;1.20;;;23.70;48.60;;;;;;5078165;28;20395;-68
2023/08/08 00:56:59;;;;;;;1.90;1.40;;;23.70;48.60;;;;;;5060357;28;20024;-67
2023/08/08 00:59:25;;;;;;;1.80;1.20;;;23.70;48.60;;;;;;5077921;28;20079;-68
2023/08/08 01:01:51;;;;;;;1.95;1.30;;;23.70;48.60;;;;;;5077034;28;20063;-67
2023/08/08 01:04:17;;;;;;;2.03;1.20;;;23.70;48.60;;;;;;5079986;28;20035;-68
2023/08/08 01:06:57;;;;;;;1.65;1.20;;;23.70;48.60;;;;;;5077217;28;20029;-69
2023/08/08 01:09:33;;;;;;;1.67;1.20;;;23.70;48.60;;;;;;5076100;28;20032;-67
2023/08/08 01:12:01;;;;;;;2.58;1.40;;;23.70;48.70;;;;;;5062958;28;20028;-68
2023/08/08 01:14:29;;;;;;;1.67;1.20;;;23.70;48.70;;;;;;5076720;28;20032;-68
2023/08/08 01:16:57;;;;;;;1.83;1.13;;;23.70;48.60;;;;;;5078279;28;20051;-67
2023/08/08 01:19:27;;;;;;;1.93;1.20;;;23.70;48.70;;;;;;5078552;28;20035;-68
2023/08/08 01:21:56;;;;;;;1.73;1.20;;;23.60;48.60;;;;;;5080065;28;20028;-69
2023/08/08 01:24:26;;;;;;;1.30;1.00;;;23.70;48.70;;;;;;5075580;28;20578;-68
2023/08/08 01:26:52;;;;;;;1.77;1.27;;;23.60;48.70;;;;;;5078491;28;20035;-69
2023/08/08 01:29:18;;;;;;;1.70;1.20;;;23.60;49.20;;;;;;5076476;28;20122;-68
2023/08/08 01:31:43;;;;;;;1.88;1.02;;;23.60;48.70;;;;;;5077081;28;20044;-68
2023/08/08 01:34:09;;;;;;;1.85;1.10;;;23.60;48.70;;;;;;5079158;28;20028;-68
2023/08/08 01:37:02;;;;;;;2.50;1.33;;;23.60;48.70;;;;;;5077467;28;20020;-68
2023/08/08 01:39:30;;;;;;;1.65;1.15;;;23.60;48.70;;;;;;5065699;28;20096;-68
2023/08/08 01:41:58;;;;;;;2.17;1.30;;;23.50;48.70;;;;;;5076482;28;20036;-68
2023/08/08 01:44:25;;;;;;;1.30;1.08;;;23.60;48.80;;;;;;5076071;28;20027;-70
2023/08/08 01:46:53;;;;;;;1.00;0.90;;;23.60;48.80;;;;;;5075748;28;20035;-68
2023/08/08 01:49:18;;;;;;;1.77;1.08;;;23.50;48.70;;;;;;5077391;28;20056;-69
2023/08/08 01:51:44;;;;;;;1.30;1.08;;;23.50;48.70;;;;;;5067603;28;20105;-66
2023/08/08 01:54:10;;;;;;;2.03;1.20;;;23.50;48.70;;;;;;5060606;28;20918;-67
2023/08/08 01:56:35;;;;;;;2.42;1.20;;;23.60;48.80;;;;;;5077271;28;20575;-66
2023/08/08 01:59:01;;;;;;;1.67;1.20;;;23.60;48.80;;;;;;5078212;28;20174;-66
2023/08/08 02:01:28;;;;;;;1.15;0.98;;;23.60;48.80;;;;;;5079557;28;20140;-66
2023/08/08 02:03:53;;;;;;;1.70;1.20;;;23.60;48.90;;;;;;5078834;28;20056;-67
2023/08/08 02:06:19;;;;;;;1.30;1.00;;;23.50;48.80;;;;;;5076647;28;20020;-66
2023/08/08 02:08:45;;;;;;;1.52;1.10;;;23.50;48.80;;;;;;5078550;28;20058;-66
2023/08/08 02:11:11;;;;;;;1.30;1.10;;;23.50;48.80;;;;;;5076972;28;20081;-66
2023/08/08 02:13:36;;;;;;;1.60;1.00;;;23.50;48.80;;;;;;5078321;28;20392;-66
2023/08/08 02:16:02;;;;;;;1.20;1.10;;;23.50;48.80;;;;;;5077878;28;20035;-66
2023/08/08 02:18:28;;;;;;;1.52;1.10;;;23.50;48.80;;;;;;5076695;28;20037;-66
2023/08/08 02:20:53;;;;;;;1.63;0.90;;;23.50;48.90;;;;;;5077287;28;20574;-66
2023/08/08 02:23:19;;;;;;;1.60;1.10;;;23.50;48.90;;;;;;5075522;28;20070;-67
2023/08/08 02:25:44;;;;;;;1.55;1.00;;;23.50;48.90;;;;;;5076154;28;20114;-67
2023/08/08 02:28:10;;;;;;;1.60;1.10;;;23.50;48.90;;;;;;5076507;28;20464;-66
2023/08/08 02:30:36;;;;;;;1.50;1.02;;;23.40;48.80;;;;;;5076585;28;20012;-68
2023/08/08 02:33:01;;;;;;;1.50;1.00;;;23.50;48.90;;;;;;5077366;28;20089;-67
2023/08/08 02:35:27;;;;;;;1.58;1.05;;;23.40;48.80;;;;;;5075047;28;20021;-67
2023/08/08 02:37:52;;;;;;;1.00;0.90;;;23.50;48.90;;;;;;5080335;28;20028;-67
2023/08/08 02:40:18;;;;;;;1.38;1.02;;;23.40;48.90;;;;;;5079892;28;20075;-68
2023/08/08 02:42:44;;;;;;;1.38;0.93;;;23.40;48.90;;;;;;5064563;28;20043;-68
2023/08/08 02:45:09;;;;;;;1.70;1.17;;;23.40;48.90;;;;;;5082517;28;20074;-68
2023/08/08 02:47:35;;;;;;;1.50;1.00;;;23.40;48.90;;;;;;5081733;28;20099;-67
2023/08/08 02:50:01;;;;;;;1.30;1.00;;;23.40;48.90;;;;;;5079667;28;20020;-67
2023/08/08 02:52:27;;;;;;;1.50;1.00;;;23.40;48.90;;;;;;5080555;28;20391;-67
2023/08/08 02:54:52;;;;;;;1.23;1.00;;;23.40;49.00;;;;;;5079934;28;20037;-68
2023/08/08 02:57:18;;;;;;;1.75;1.00;;;23.40;49.00;;;;;;5079196;28;20349;-68
2023/08/08 02:59:43;;;;;;;1.17;1.00;;;23.40;49.00;;;;;;5079324;28;20479;-64
2023/08/08 03:02:09;;;;;;;1.52;1.00;;;23.40;49.00;;;;;;5080408;28;20099;-64
2023/08/08 03:04:35;;;;;;;1.48;1.10;;;23.40;49.00;;;;;;5080318;28;20032;-66
2023/08/08 03:07:03;;;;;;;1.90;1.10;;;23.30;49.00;;;;;;5081053;28;20472;-66
2023/08/08 03:09:30;;;;;;;1.70;1.10;;;23.40;49.00;;;;;;5064374;28;20054;-64
2023/08/08 03:11:55;;;;;;;1.60;1.10;;;23.40;49.00;;;;;;5078998;28;20128;-66
2023/08/08 03:14:21;;;;;;;1.65;1.05;;;23.40;49.00;;;;;;5082968;28;20051;-65
2023/08/08 03:16:46;;;;;;;2.60;1.05;;;23.40;49.00;;;;;;5080302;28;20475;-65
2023/08/08 03:19:12;;;;;;;1.20;0.90;;;23.30;49.00;;;;;;5081221;28;20071;-65
2023/08/08 03:21:38;;;;;;;1.60;1.10;;;23.40;49.10;;;;;;5079293;28;20396;-66
2023/08/08 03:24:04;;;;;;;1.60;1.13;;;23.40;49.10;;;;;;5079725;28;20340;-66
2023/08/08 03:26:29;;;;;;;1.17;0.82;;;23.30;49.00;;;;;;5080033;28;20032;-66
2023/08/08 03:28:55;;;;;;;0.90;0.80;;;23.30;49.00;;;;;;5061563;28;20086;-64
2023/08/08 03:31:21;;;;;;;1.38;1.00;;;23.30;49.10;;;;;;5082906;28;20023;-65
2023/08/08 03:33:47;;;;;;;1.45;1.10;;;23.30;49.10;;;;;;5080301;28;20032;-65
2023/08/08 03:36:14;;;;;;;1.33;0.90;;;23.30;49.10;;;;;;5078603;28;20129;-65
2023/08/08 03:38:40;;;;;;;1.50;1.00;;;23.30;49.10;;;;;;5078733;28;20035;-66
2023/08/08 03:41:06;;;;;;;1.23;0.85;;;23.30;49.10;;;;;;5078120;28;20468;-68
2023/08/08 03:43:31;;;;;;;1.58;1.00;;;23.30;49.10;;;;;;5079774;28;20051;-67
2023/08/08 03:45:57;;;;;;;1.63;1.10;;;23.30;49.10;;;;;;5079528;28;20025;-67
2023/08/08 03:48:22;;;;;;;1.17;1.00;;;23.30;49.10;;;;;;5079519;28;20137;-67
2023/08/08 03:50:48;;;;;;;1.73;0.90;;;23.30;49.10;;;;;;5064382;28;20046;-67
2023/08/08 03:53:14;;;;;;;1.00;0.90;;;23.30;49.10;;;;;;5078916;28;20813;-68
2023/08/08 03:55:39;;;;;;;1.45;0.90;;;23.20;49.10;;;;;;5079036;28;20036;-67
2023/08/08 03:58:05;;;;;;;1.58;1.10;;;23.30;49.10;;;;;;5079613;28;20027;-67
2023/08/08 04:00:31;;;;;;;0.98;0.80;;;23.20;49.10;;;;;;5081414;28;20031;-67
2023/08/08 04:02:57;;;;;;;1.20;0.95;;;23.20;49.60;;;;;;5080520;28;20484;-67
2023/08/08 04:05:22;;;;;;;1.55;0.85;;;23.20;49.10;;;;;;5080964;28;20050;-67
2023/08/08 04:07:49;;;;;;;1.10;0.90;;;23.20;49.20;;;;;;5076891;28;20463;-67
2023/08/08 04:10:15;;;;;;;1.50;1.10;;;23.20;49.10;;;;;;5060222;28;20107;-65
2023/08/08 04:12:40;;;;;;;1.17;0.90;;;23.20;49.20;;;;;;5078372;28;20155;-67
2023/08/08 04:15:06;;;;;;;1.20;0.80;;;23.20;49.20;;;;;;5061464;28;20033;-67
2023/08/08 04:17:32;;;;;;;1.17;0.90;;;23.20;49.20;;;;;;5078561;28;20025;-67
2023/08/08 04:19:58;;;;;;;1.02;0.85;;;23.20;49.20;;;;;;5061961;28;20035;-67
2023/08/08 04:22:23;;;;;;;1.17;0.82;;;23.20;49.20;;;;;;5076268;28;20491;-66
2023/08/08 04:24:49;;;;;;;1.13;0.80;;;23.20;49.20;;;;;;5076613;28;20064;-66
2023/08/08 04:27:14;;;;;;;1.20;0.90;;;23.20;49.20;;;;;;5078588;28;20028;-68
2023/08/08 04:29:40;;;;;;;1.20;0.90;;;23.20;49.20;;;;;;5079852;28;20475;-65
2023/08/08 04:32:06;;;;;;;1.30;0.90;;;23.20;49.20;;;;;;5064552;28;20027;-66
2023/08/08 04:34:31;;;;;;;1.20;0.90;;;23.20;49.20;;;;;;5077934;28;20032;-67
2023/08/08 04:36:57;;;;;;;1.25;0.90;;;23.20;49.30;;;;;;5079688;28;20032;-66
2023/08/08 04:39:23;;;;;;;1.00;0.85;;;23.20;49.20;;;;;;5079517;28;20027;-67
2023/08/08 04:41:48;;;;;;;1.48;0.98;;;23.20;49.30;;;;;;5076844;28;20498;-67
2023/08/08 04:44:14;;;;;;;1.15;0.90;;;23.20;49.30;;;;;;5078105;28;20036;-66
2023/08/08 04:46:39;;;;;;;1.23;0.90;;;23.20;49.30;;;;;;5079499;28;20020;-66
2023/08/08 04:49:05;;;;;;;0.90;0.80;;;23.10;49.30;;;;;;5063245;28;20122;-67
2023/08/08 04:51:31;;;;;;;1.00;0.90;;;23.10;49.30;;;;;;5078317;28;20035;-64
2023/08/08 04:53:56;;;;;;;1.45;0.90;;;23.10;49.30;;;;;;5069081;28;20059;-65
2023/08/08 04:56:22;;;;;;;1.48;1.00;;;23.10;49.30;;;;;;5080314;28;20093;-65
2023/08/08 04:58:48;;;;;;;1.15;0.80;;;23.10;49.30;;;;;;5076916;28;20654;-66
2023/08/08 05:01:15;;;;;;;1.45;0.90;;;23.10;49.30;;;;;;5077811;28;20028;-68
2023/08/08 05:03:41;;;;;;;1.58;1.00;;;23.10;49.30;;;;;;5077850;28;20070;-65
2023/08/08 05:06:07;;;;;;;0.88;0.80;;;23.10;49.30;;;;;;5079147;28;20020;-66
2023/08/08 05:08:32;;;;;;;1.42;0.90;;;23.10;49.30;;;;;;5076957;28;20034;-65
2023/08/08 05:10:58;;;;;;;1.30;0.90;;;23.10;49.30;;;;;;5076564;28;20028;-65
2023/08/08 05:13:24;;;;;;;1.30;1.00;;;23.10;49.30;;;;;;5078848;28;20032;-65
2023/08/08 05:15:49;;;;;;;1.00;0.90;;;23.10;49.30;;;;;;5062525;28;20398;-65
2023/08/08 05:18:15;;;;;;;1.00;0.80;;;23.10;49.30;;;;;;5076580;28;20104;-66
2023/08/08 05:20:40;;;;;;;0.95;0.85;;;23.10;49.30;;;;;;5078304;28;20435;-66
2023/08/08 05:23:06;;;;;;;1.08;0.90;;;23.10;49.30;;;;;;5069543;28;20020;-67
2023/08/08 05:25:31;;;;;;;1.05;0.80;;;23.10;49.80;;;;;;5078080;28;20791;-66
2023/08/08 05:27:57;;;;;;;1.00;0.90;;;23.10;49.30;;;;;;5077426;28;20017;-67
2023/08/08 05:30:23;;;;;;;0.80;0.80;;;23.10;49.30;;;;;;5077641;28;20039;-66
2023/08/08 05:32:48;;;;;;;0.82;0.75;;;23.10;49.30;;;;;;5078546;28;20548;-67
2023/08/08 05:35:17;;;;;;;0.63;0.63;;;23.10;49.60;;;;;;5078446;28;20028;-67
2023/08/08 05:37:43;;;;;;;0.80;0.80;;;23.00;49.30;;;;;;5058744;28;20039;-67
2023/08/08 05:40:10;;;;;;;0.80;0.80;;;23.10;49.30;;;;;;5059305;28;20392;-67
2023/08/08 05:42:36;;;;;;;0.95;0.80;;;23.10;49.40;;;;;;5078591;28;20482;-66
2023/08/08 05:45:02;;;;;;;1.27;0.80;;;23.00;49.30;;;;;;5076447;28;20132;-68
2023/08/08 05:47:28;;;;;;;0.98;0.88;;;23.00;49.30;;;;;;5075849;28;20511;-67
2023/08/08 05:49:53;;;;;;;0.85;0.80;;;23.00;49.40;;;;;;5076860;28;20513;-66
2023/08/08 05:52:21;;;;;;;0.80;0.80;;;23.00;49.30;;;;;;5076650;28;20032;-67
2023/08/08 05:54:46;;;;;;;1.13;0.90;;;23.00;49.40;;;;;;5077167;28;20106;-66
2023/08/08 05:57:12;;;;;;;0.70;0.70;;;23.00;49.40;;;;;;5075649;28;20033;-67
2023/08/08 05:59:37;;;;;;;0.77;0.77;;;23.00;49.40;;;;;;5077189;28;20060;-67
2023/08/08 06:02:03;;;;;;;1.05;0.90;;;23.00;49.40;;;;;;5077018;28;20032;-65
2023/08/08 06:04:29;;;;;;;1.00;0.90;;;23.00;49.40;;;;;;5077068;28;20071;-65
2023/08/08 06:06:55;;;;;;;1.08;0.80;;;23.00;49.40;;;;;;5076242;28;20112;-66
2023/08/08 06:09:20;;;;;;;0.88;0.80;;;23.00;49.40;;;;;;5076829;28;20902;-66
2023/08/08 06:11:46;;;;;;;0.82;0.80;;;23.00;49.40;;;;;;5076835;28;20016;-66
2023/08/08 06:14:11;;;;;;;0.77;0.73;;;23.00;49.40;;;;;;5082348;28;20491;-66
2023/08/08 06:16:37;;;;;;;1.00;0.80;;;23.00;49.50;;;;;;5082256;28;20028;-66
2023/08/08 06:19:03;;;;;;;1.55;0.90;;;23.00;49.60;;;;;;5081461;28;20035;-65
2023/08/08 06:21:28;;;;;;;1.20;0.90;;;22.90;49.50;;;;;;5065574;28;20484;-66
2023/08/08 06:23:54;;;;;;;0.88;0.80;;;23.00;49.50;;;;;;5081135;28;20028;-66
2023/08/08 06:26:21;;;;;;;0.95;0.80;;;22.90;49.50;;;;;;5081775;28;20355;-66
2023/08/08 06:28:47;;;;;;;0.88;0.70;;;23.00;49.50;;;;;;5072262;28;20107;-66
2023/08/08 06:31:14;;;;;;;1.40;0.90;;;22.90;49.40;;;;;;5081537;28;20055;-66
2023/08/08 06:33:40;;;;;;;1.17;0.80;;;22.90;49.50;;;;;;5081487;28;20020;-65
2023/08/08 06:36:05;;;;;;;1.08;0.90;;;22.90;49.50;;;;;;5080528;28;20028;-66
2023/08/08 06:38:34;;;;;;;1.10;0.80;;;23.00;49.50;;;;;;5080881;28;20028;-66
2023/08/08 06:41:08;;;;;;;0.77;0.70;;;22.90;49.40;;;;;;5082364;28;20566;-68
2023/08/08 06:43:34;;;;;;;0.85;0.73;;;22.90;49.60;;;;;;5080061;28;20375;-68
2023/08/08 06:46:00;;;;;;;1.15;0.80;;;22.90;49.50;;;;;;5065443;28;20077;-68
2023/08/08 06:48:26;;;;;;;1.08;0.70;;;22.90;49.50;;;;;;5081566;28;20020;-68
2023/08/08 06:50:52;;;;;;;1.02;0.80;;;22.90;49.50;;;;;;5081465;28;20100;-68
2023/08/08 06:53:18;;;;;;;0.77;0.70;;;22.90;49.50;;;;;;5079409;28;20147;-68
2023/08/08 06:55:43;;;;;;;0.70;0.68;;;22.90;49.60;;;;;;5080999;28;20036;-68
2023/08/08 06:58:09;;;;;;;0.93;0.80;;;22.90;49.50;;;;;;5079447;28;20162;-68
2023/08/08 07:00:34;;;;;;;1.45;0.90;;;22.90;49.60;;;;;;5083566;28;20530;-68
2023/08/08 07:03:00;;;;;;;0.73;0.70;;;22.90;49.50;;;;;;5082157;28;20020;-68
2023/08/08 07:05:26;;;;;;;1.17;0.80;;;22.90;49.60;;;;;;5079008;28;20485;-68
2023/08/08 07:07:52;;;;;;;1.40;0.90;;;22.90;49.60;;;;;;5080529;28;20107;-68
2023/08/08 07:10:18;;;;;;;1.08;0.80;;;22.90;49.60;;;;;;5079635;28;20076;-68
2023/08/08 07:12:44;;;;;;;1.00;0.80;;;22.90;49.60;;;;;;5079237;28;20035;-68
2023/08/08 07:15:10;;;;;;;0.75;0.70;;;22.90;49.60;;;;;;5078934;28;20476;-68
2023/08/08 07:17:36;;;;;;;1.23;0.80;;;22.90;49.60;;;;;;5078472;28;20078;-68
2023/08/08 07:20:02;;;;;;;0.82;0.70;;;22.90;49.60;;;;;;5081028;28;20028;-68
2023/08/08 07:22:28;;;;;;;0.95;0.70;;;22.90;49.60;;;;;;5080031;28;20024;-68
2023/08/08 07:24:53;;;;;;;0.60;0.60;;;22.90;49.60;;;;;;5079876;28;20056;-68
2023/08/08 07:27:19;;;;;;;0.70;0.70;;;22.80;49.50;;;;;;5064357;28;20078;-68
2023/08/08 07:29:45;;;;;;;0.90;0.80;;;22.80;49.50;;;;;;5079847;28;20095;-68
2023/08/08 07:32:10;;;;;;;1.08;0.70;;;22.80;49.50;;;;;;5080979;28;20028;-69
2023/08/08 07:34:36;;;;;;;0.75;0.73;;;22.80;49.60;;;;;;5080203;28;20124;-68
2023/08/08 07:37:02;;;;;;;0.82;0.70;;;22.80;49.60;;;;;;5080693;28;20047;-68
2023/08/08 07:39:28;;;;;;;0.77;0.70;;;22.80;49.60;;;;;;5080792;28;20115;-68
2023/08/08 07:41:54;;;;;;;0.65;0.65;;;22.80;49.60;;;;;;5062227;28;20119;-68
2023/08/08 07:44:20;;;;;;;1.25;0.80;;;22.80;49.60;;;;;;5064312;28;20404;-68
2023/08/08 07:46:46;;;;;;;1.08;0.80;;;22.80;49.70;;;;;;5079313;28;20024;-68
2023/08/08 07:49:11;;;;;;;0.50;0.50;;;22.80;49.70;;;;;;5079499;28;20028;-68
2023/08/08 07:51:37;;;;;;;0.80;0.70;;;22.80;49.70;;;;;;5077141;28;20486;-67
2023/08/08 07:54:05;;;;;;;0.93;0.70;;;22.80;49.70;;;;;;5078303;28;20688;-66
2023/08/08 07:56:31;;;;;;;0.90;0.70;;;22.80;49.70;;;;;;5078783;28;20036;-67
2023/08/08 07:58:56;;;;;;;0.90;0.80;;;22.80;49.70;;;;;;5078047;28;20579;-66
2023/08/08 08:01:22;;;;;;;0.98;0.80;;;22.80;49.70;;;;;;5078496;28;20040;-67
2023/08/08 08:03:48;;;;;;;0.70;0.70;;;22.80;49.80;;;;;;5079327;28;20531;-66
2023/08/08 08:06:14;;;;;;;0.68;0.65;;;22.80;49.80;;;;;;5079256;28;20095;-67
2023/08/08 08:08:39;;;;;;;0.93;0.77;;;22.80;49.80;;;;;;5080325;28;20033;-67
2023/08/08 08:11:05;;;;;;;0.90;0.60;;;22.80;49.90;;;;;;5078182;28;20144;-66
2023/08/08 08:13:31;;;;;;;0.60;0.60;;;22.80;50.30;;;;;;5065486;28;20028;-66
2023/08/08 08:15:56;;;;;;;0.80;0.60;;;22.80;49.80;;;;;;5078342;28;20024;-66
2023/08/08 08:18:22;;;;;;;0.75;0.60;;;22.80;49.80;;;;;;5081062;28;20036;-67
2023/08/08 08:20:48;;;;;;;0.60;0.60;;;22.80;49.70;;;;;;5079018;28;20047;-67
2023/08/08 08:23:14;;;;;;;0.80;0.70;;;22.80;49.80;;;;;;5079567;28;20352;-68
2023/08/08 08:25:40;;;;;;;1.00;0.70;;;22.80;49.70;;;;;;5076996;28;20028;-68
2023/08/08 08:28:05;;;;;;;1.63;0.60;;;22.80;49.80;;;;;;5076944;28;20506;-68
2023/08/08 08:30:31;;;;;;;0.90;0.65;;;22.80;49.80;;;;;;5080019;28;20028;-68
2023/08/08 08:32:57;;;;;;;1.00;0.80;;;22.80;49.70;;;;;;5069741;28;20407;-68
2023/08/08 08:35:23;;;;;;;0.70;0.70;;;22.80;49.70;;;;;;5077920;28;20094;-68
2023/08/08 08:37:49;;;;;;;0.77;0.70;;;22.80;49.70;;;;;;5062075;28;20040;-68
2023/08/08 08:40:14;;;;;;;1.05;0.75;;;22.80;49.70;;;;;;5077327;28;20024;-68
2023/08/08 08:42:41;;;;;;;1.10;0.77;;;22.70;49.70;;;;;;5075993;28;20424;-68
2023/08/08 08:45:09;;;;;;;0.93;0.60;;;22.80;49.70;;;;;;5077993;28;20039;-68
2023/08/08 08:47:36;;;;;;;0.80;0.70;;;22.80;49.70;;;;;;5080255;28;20028;-68
2023/08/08 08:50:03;;;;;;;0.88;0.65;;;22.70;49.60;;;;;;5077524;28;20102;-68
2023/08/08 08:52:30;;;;;;;0.98;0.77;;;22.80;49.70;;;;;;5077060;28;20025;-66
2023/08/08 08:54:56;;;;;;;0.95;0.77;;;22.70;49.60;;;;;;5075519;28;20479;-66
2023/08/08 08:57:23;;;;;;;0.60;0.60;;;22.70;49.60;;;;;;5076142;28;20055;-67
2023/08/08 08:59:49;;;;;;;0.88;0.60;;;22.70;49.60;;;;;;5076772;28;20024;-66
2023/08/08 09:02:15;;;;;;;0.88;0.75;;;22.80;49.60;;;;;;5069629;28;20035;-68
2023/08/08 09:04:42;;;;;;;0.85;0.60;;;22.70;49.60;;;;;;5080321;28;20371;-68
2023/08/08 09:07:09;;;;;;;2.20;0.75;;;22.70;49.60;;;;;;5058983;28;20024;-68
2023/08/08 09:09:36;;;;;;;0.85;0.60;;;22.70;49.60;;;;;;5078221;28;20020;-68
2023/08/08 09:12:05;;;;;;;0.82;0.75;;;22.70;49.60;;;;;;5078610;28;20087;-68
2023/08/08 09:14:31;;;;;;;1.15;0.70;;;22.70;49.60;;;;;;5078676;28;20032;-68
2023/08/08 09:16:57;;;;;;;0.93;0.65;;;22.70;49.60;;;;;;5061210;28;20172;-67
2023/08/08 09:19:23;;;;;;;0.80;0.70;;;22.70;49.60;;;;;;5079645;28;20036;-68
2023/08/08 09:21:51;;;;;;;0.98;0.80;;;22.70;49.50;;;;;;5079176;28;20047;-68
2023/08/08 09:24:17;;;;;;;0.60;0.60;;;22.70;49.60;;;;;;5077489;28;20035;-68
2023/08/08 09:26:44;;;;;;;1.10;0.80;;;22.70;49.60;;;;;;5077412;28;20487;-68
2023/08/08 09:29:12;;;;;;;0.73;0.70;;;22.70;49.60;;;;;;5074545;28;20532;-68
2023/08/08 09:31:38;;;;;;;1.10;0.70;;;22.70;49.60;;;;;;5078368;28;20099;-66
2023/08/08 09:34:05;;;;;;;1.15;0.70;;;22.70;50.10;;;;;;5068070;28;20474;-66
2023/08/08 09:36:30;;;;;;;1.15;0.82;;;22.70;49.60;;;;;;5077679;28;20139;-67
2023/08/08 09:38:56;;;;;;;0.70;0.68;;;22.70;49.60;;;;;;5079867;28;20143;-66
2023/08/08 09:41:23;;;;;;;1.00;0.73;;;22.70;49.60;;;;;;5077760;28;20044;-67
2023/08/08 09:43:50;;;;;;;0.95;0.65;;;22.70;49.60;;;;;;5076180;28;20403;-66
2023/08/08 09:46:15;;;;;;;1.20;0.60;;;22.70;49.60;;;;;;5076831;28;20064;-67
2023/08/08 09:48:42;;;;;;;1.38;0.70;;;22.70;49.60;;;;;;5078944;28;20399;-67
2023/08/08 09:51:08;;;;;;;1.17;0.70;;;22.70;49.60;;;;;;5081498;28;20487;-67
2023/08/08 09:53:35;;;;;;;1.20;0.70;;;22.70;49.60;;;;;;5082533;28;20021;-66
2023/08/08 09:56:03;;;;;;;0.80;0.70;;;22.70;49.70;;;;;;5081095;28;20085;-67
2023/08/08 09:58:29;;;;;;;0.67;0.60;;;22.70;49.70;;;;;;5080233;28;20514;-67
2023/08/08 10:00:55;;;;;;;1.20;0.70;;;22.70;49.70;;;;;;5081562;28;20378;-66
2023/08/08 10:03:22;;;;;;;1.30;0.70;;;22.70;49.70;;;;;;5081450;28;20029;-66
2023/08/08 10:05:48;;;;;;;0.65;0.60;;;22.70;49.60;;;;;;5082702;28;20425;-66
2023/08/08 10:08:17;;;;;;;0.77;0.60;;;22.60;49.60;;;;;;5081376;28;20471;-66
2023/08/08 10:10:45;;;;;;;0.90;0.70;;;22.60;49.60;;;;;;5080061;28;20028;-66
2023/08/08 10:13:22;;;;;;;0.90;0.70;;;22.60;49.60;;;;;;5080358;28;20033;-68
2023/08/08 10:15:48;;;;;;;0.70;0.70;;;22.70;50.20;;;;;;5081188;28;20042;-67
2023/08/08 10:18:14;;;;;;;1.13;0.70;;;22.70;49.70;;;;;;5080098;28;20028;-67
2023/08/08 10:20:44;;;;;;;0.80;0.60;;;22.70;49.70;;;;;;5080714;28;20081;-67
2023/08/08 10:23:09;;;;;;;1.05;0.70;;;22.70;49.70;;;;;;5072867;28;20476;-68
2023/08/08 10:25:36;;;;;;;0.60;0.60;;;22.70;49.70;;;;;;5081391;28;20070;-68
2023/08/08 10:28:04;;;;;;;0.95;0.70;;;22.70;49.70;;;;;;5080959;28;20108;-68
2023/08/08 10:30:42;;;;;;;0.73;0.60;;;22.70;49.70;;;;;;5082675;28;20085;-68
2023/08/08 10:33:19;;;;;;;0.80;0.60;;;22.70;49.70;;;;;;5081823;28;20048;-68
2023/08/08 10:35:57;;;;;;;0.65;0.60;;;22.70;49.70;;;;;;5082053;28;20032;-67
2023/08/08 10:38:27;;;;;;;0.60;0.60;;;22.70;49.70;;;;;;5081215;28;20480;-68
2023/08/08 10:40:57;;;;;;;0.82;0.60;;;22.70;49.70;;;;;;5080669;28;20040;-67
2023/08/08 10:43:28;;;;;;;0.93;0.55;;;22.60;49.60;;;;;;5080172;28;20035;-67
2023/08/08 10:46:01;;;;;;;0.90;0.70;;;22.70;49.70;;;;;;5080476;28;20032;-68
2023/08/08 10:48:26;;;;;;;0.68;0.68;;;22.70;49.70;;;;;;5081773;28;20040;-67
2023/08/08 10:50:57;;;;;;;0.90;0.70;;;22.70;49.70;;;;;;5080960;28;20119;-67
2023/08/08 10:53:26;;;;;;;0.80;0.60;;;22.70;49.70;;;;;;5061375;28;20036;-67
2023/08/08 10:56:18;;;;;;;0.68;0.65;;;22.70;49.60;;;;;;5081098;28;20103;-67
2023/08/08 10:58:48;;;;;;;0.80;0.60;;;22.70;49.60;;;;;;5075077;28;20028;-67
2023/08/08 11:01:14;;;;;;;;;;;22.70;49.60;;;;;;5083607;28;20025;-67
2023/08/08 11:03:41;;;;;;;0.75;0.60;;;22.70;49.60;;;;;;5080104;28;19950;-67
2023/08/08 11:06:08;;;;;;;0.60;0.60;;;22.70;49.60;;;;;;5080773;28;20028;-67
2023/08/08 11:08:34;;;;;;;0.73;0.68;;;22.70;49.60;;;;;;5079999;28;20020;-67
2023/08/08 11:11:00;;;;;;;1.38;0.80;;;22.60;49.50;;;;;;5079095;28;20023;-67
2023/08/08 11:13:26;;;;;;;0.98;0.70;;;22.60;49.50;;;;;;5079674;28;20033;-68
2023/08/08 11:15:52;;;;;;;0.90;0.70;;;22.60;49.60;;;;;;5081217;28;20067;-68
2023/08/08 11:18:18;;;;;;;0.70;0.60;;;22.60;49.60;;;;;;5080545;28;20029;-68
2023/08/08 11:20:44;;;;;;;0.90;0.70;;;22.60;49.60;;;;;;5079209;28;20426;-68
2023/08/08 11:23:10;;;;;;;0.95;0.70;;;22.60;49.60;;;;;;5078664;28;20066;-67
2023/08/08 11:25:39;;;;;;;0.80;0.70;;;22.60;49.60;;;;;;5082499;28;20460;-67
2023/08/08 11:28:05;;;;;;;0.57;0.57;;;22.60;49.60;;;;;;5079367;28;20070;-66
2023/08/08 11:30:34;;;;;;;1.05;0.63;;;22.70;49.70;;;;;;5077797;28;20120;-67
2023/08/08 11:33:00;;;;;;;0.60;0.60;;;22.70;49.70;;;;;;5080693;28;20055;-67
2023/08/08 11:35:29;;;;;;;0.80;0.63;;;22.70;49.70;;;;;;5080711;28;20040;-66
2023/08/08 11:37:57;;;;;;;0.85;0.70;;;22.60;49.70;;;;;;5078227;28;20032;-66
2023/08/08 11:40:24;;;;;;;0.80;0.65;;;22.70;49.70;;;;;;5080164;28;20036;-66
2023/08/08 11:42:51;;;;;;;0.77;0.65;;;22.70;49.60;;;;;;5080018;28;20030;-67
2023/08/08 11:45:18;;;;;;;1.33;0.70;;;22.70;49.50;;;;;;5077760;28;20451;-66
2023/08/08 11:47:43;;;;;;;0.73;0.60;;;22.70;49.50;;;;;;5078029;28;20089;-66
2023/08/08 11:50:10;;;;;;;0.80;0.60;;;22.70;49.40;;;;;;5078753;28;20421;-66
2023/08/08 11:52:41;;;;;;;1.20;0.80;;;22.70;49.30;;;;;;5073729;28;20022;-66
2023/08/08 11:55:08;;;;;;;0.60;0.60;;;22.70;49.40;;;;;;5078425;28;20048;-66
2023/08/08 11:57:39;;;;;;;1.10;0.80;;;22.70;49.40;;;;;;5079263;28;20550;-66
2023/08/08 12:00:07;;;;;;;1.00;0.80;;;22.70;49.50;;;;;;5079313;28;20094;-66
2023/08/08 12:02:34;;;;;;;0.60;0.60;;;22.70;49.50;;;;;;5079062;28;20024;-66
2023/08/08 12:05:13;;;;;;;1.45;0.70;;;22.70;49.50;;;;;;5079206;28;20035;-66
2023/08/08 12:07:41;;;;;;;;;;;22.70;49.50;;;;;;5079680;28;20029;-66
2023/08/08 12:10:18;;;;;;;0.70;0.60;;;22.70;49.40;;;;;;5077401;28;19908;-66
2023/08/08 12:12:45;;;;;;;1.17;0.70;;;22.70;49.40;;;;;;5065598;28;20097;-66
2023/08/08 12:15:12;;;;;;;0.70;0.63;;;22.70;49.30;;;;;;5078347;28;20106;-66
2023/08/08 12:17:38;;;;;;;0.50;0.50;;;22.70;49.40;;;;;;5079039;28;20028;-66
2023/08/08 12:20:07;;;;;;;1.60;0.75;;;22.70;49.40;;;;;;5078304;28;20491;-66
2023/08/08 12:22:34;;;;;;;1.48;0.80;;;22.70;49.40;;;;;;5076758;28;20063;-66
2023/08/08 12:24:59;;;;;;;0.80;0.70;;;22.70;49.30;;;;;;5061598;28;20029;-66
2023/08/08 12:27:25;;;;;;;0.70;0.60;;;22.70;49.30;;;;;;5079794;28;20056;-66
2023/08/08 12:29:51;;;;;;;1.13;0.73;;;22.70;49.30;;;;;;5077906;28;20031;-66
2023/08/08 12:32:19;;;;;;;1.15;0.70;;;22.70;49.30;;;;;;5078170;28;20020;-66
2023/08/08 12:34:45;;;;;;;0.90;0.75;;;22.60;49.20;;;;;;5079870;28;20439;-67
2023/08/08 12:37:11;;;;;;;1.45;0.60;;;22.70;49.30;;;;;;5082010;28;20039;-66
2023/08/08 12:39:36;;;;;;;1.08;0.70;;;22.70;49.30;;;;;;5077619;28;20081;-67
2023/08/08 12:42:02;;;;;;;1.15;0.80;;;22.70;49.30;;;;;;5079016;28;20028;-67
2023/08/08 12:44:27;;;;;;;0.98;0.73;;;22.70;49.10;;;;;;5077625;28;20025;-67